createdAt,value
2023-02-12T00:01:25.566Z,81.28
2023-02-12T00:03:53.554Z,81.61
2023-02-12T00:06:21.392Z,81.11
2023-02-12T00:08:51.354Z,81.19
2023-02-12T00:11:22.676Z,80.90
2023-02-12T00:13:50.842Z,80.84
2023-02-12T00:16:22.190Z,80.50
2023-02-12T00:18:52.977Z,80.41
2023-02-12T00:21:22.391Z,81.18
2023-02-12T00:23:50.158Z,81.20
2023-02-12T00:26:20.548Z,81.35
2023-02-12T00:28:50.654Z,81.51
2023-02-12T00:31:22.284Z,81.66
2023-02-12T00:33:50.901Z,81.57
2023-02-12T00:36:24.707Z,81.89
2023-02-12T00:38:54.444Z,81.63
2023-02-12T00:41:22.882Z,82.04
2023-02-12T00:43:51.163Z,81.85
2023-02-12T00:46:19.265Z,82.28
2023-02-12T00:48:47.166Z,82.00
2023-02-12T00:51:15.065Z,82.27
2023-02-12T00:53:42.901Z,82.05
2023-02-12T00:56:10.799Z,81.84
2023-02-12T00:58:38.602Z,82.48
2023-02-12T01:01:08.014Z,82.25
2023-02-12T01:03:36.934Z,82.32
2023-02-12T01:06:05.971Z,82.46
2023-02-12T01:08:33.747Z,82.64
2023-02-12T01:11:03.786Z,83.14
2023-02-12T01:13:33.708Z,82.99
2023-02-12T01:16:16.424Z,82.91
2023-02-12T01:18:45.307Z,82.86
2023-02-12T01:21:19.243Z,83.08
2023-02-12T01:23:47.307Z,82.59
2023-02-12T01:26:17.022Z,82.58
2023-02-12T01:28:48.775Z,82.53
2023-02-12T01:31:19.306Z,82.30
2023-02-12T01:33:52.283Z,82.36
2023-02-12T01:36:20.503Z,82.33
2023-02-12T01:38:50.165Z,82.14
2023-02-12T01:41:30.047Z,82.48
2023-02-12T01:44:30.908Z,81.91
2023-02-12T01:47:01.422Z,81.32
2023-02-12T01:49:37.909Z,81.03
2023-02-12T01:52:20.161Z,80.97
2023-02-12T01:54:50.372Z,81.04
2023-02-12T01:57:19.048Z,80.69
2023-02-12T01:59:51.200Z,80.60
2023-02-12T02:02:19.380Z,80.70
2023-02-12T02:04:54.602Z,80.58
2023-02-12T02:07:22.372Z,80.37
2023-02-12T02:09:50.822Z,80.70
2023-02-12T02:12:37.187Z,80.74
2023-02-12T02:15:06.153Z,80.65
2023-02-12T02:17:39.932Z,80.79
2023-02-12T02:20:26.074Z,80.65
2023-02-12T02:23:12.075Z,80.34
2023-02-12T02:26:01.181Z,80.25
2023-02-12T02:28:44.092Z,80.08
2023-02-12T02:31:35.455Z,79.83
2023-02-12T02:34:28.202Z,79.71
2023-02-12T02:37:04.018Z,79.73
2023-02-12T02:39:40.037Z,79.55
2023-02-12T02:42:10.815Z,79.52
2023-02-12T02:44:47.285Z,80.45
2023-02-12T02:47:19.150Z,79.98
2023-02-12T02:49:56.207Z,80.17
2023-02-12T02:52:37.349Z,80.57
2023-02-12T02:55:11.202Z,80.54
2023-02-12T02:57:46.581Z,80.48
2023-02-12T03:00:22.271Z,79.89
2023-02-12T03:02:52.809Z,80.31
2023-02-12T03:05:30.073Z,79.97
2023-02-12T03:08:12.440Z,80.14
2023-02-12T03:10:45.782Z,80.14
2023-02-12T03:13:26.566Z,79.78
2023-02-12T03:16:06.377Z,80.03
2023-02-12T03:18:41.620Z,79.78
2023-02-12T03:21:17.940Z,80.00
2023-02-12T03:24:01.028Z,80.33
2023-02-12T03:26:42.442Z,80.39
2023-02-12T03:29:10.434Z,80.46
2023-02-12T03:32:09.721Z,80.81
2023-02-12T03:35:06.699Z,80.46
2023-02-12T03:37:43.710Z,80.65
2023-02-12T03:40:16.268Z,81.07
2023-02-12T03:43:20.793Z,80.86
2023-02-12T03:46:13.515Z,81.01
2023-02-12T03:48:56.722Z,80.93
2023-02-12T03:51:34.583Z,80.92
2023-02-12T03:54:04.390Z,80.66
2023-02-12T03:56:39.664Z,81.07
2023-02-12T03:59:07.618Z,80.83
2023-02-12T04:01:36.551Z,80.95
2023-02-12T04:04:06.796Z,80.79
2023-02-12T04:06:35.379Z,80.17
2023-02-12T04:09:09.596Z,80.33
2023-02-12T04:11:59.158Z,79.88
2023-02-12T04:14:31.410Z,79.60
2023-02-12T04:17:08.967Z,80.07
2023-02-12T04:20:10.446Z,79.61
2023-02-12T04:22:50.170Z,79.84
2023-02-12T04:25:39.415Z,79.92
2023-02-12T04:28:29.544Z,80.23
2023-02-12T04:31:07.948Z,79.99
2023-02-12T04:33:47.344Z,80.29
2023-02-12T04:36:23.736Z,80.15
2023-02-12T04:38:55.532Z,80.67
2023-02-12T04:41:25.691Z,80.63
2023-02-12T04:43:53.468Z,80.42
2023-02-12T04:46:21.190Z,80.58
2023-02-12T04:48:58.625Z,80.65
2023-02-12T04:51:26.500Z,81.09
2023-02-12T04:53:54.243Z,81.18
2023-02-12T04:56:21.948Z,81.69
2023-02-12T04:58:50.527Z,81.51
2023-02-12T05:01:18.292Z,81.76
2023-02-12T05:03:46.192Z,81.94
2023-02-12T05:06:13.992Z,82.12
2023-02-12T05:08:41.701Z,82.16
2023-02-12T05:11:10.353Z,81.32
2023-02-12T05:13:38.272Z,81.01
2023-02-12T05:16:07.360Z,81.54
2023-02-12T05:18:35.800Z,81.88
2023-02-12T05:21:05.602Z,82.12
2023-02-12T05:23:34.717Z,81.77
2023-02-12T05:26:05.783Z,81.08
2023-02-12T05:28:33.602Z,81.32
2023-02-12T05:31:03.548Z,80.71
2023-02-12T05:33:32.155Z,81.27
2023-02-12T05:36:10.837Z,80.46
2023-02-12T05:38:38.701Z,81.00
2023-02-12T05:41:15.160Z,80.60
2023-02-12T05:43:43.241Z,80.58
2023-02-12T05:46:12.158Z,81.33
2023-02-12T05:48:40.386Z,80.56
2023-02-12T05:51:11.967Z,80.95
2023-02-12T05:53:41.065Z,80.28
2023-02-12T05:56:11.976Z,80.99
2023-02-12T05:58:41.728Z,79.73
2023-02-12T06:01:14.269Z,80.26
2023-02-12T06:03:42.751Z,80.02
2023-02-12T06:06:10.912Z,79.70
2023-02-12T06:08:39.352Z,79.67
2023-02-12T06:11:11.022Z,79.60
2023-02-12T06:13:38.779Z,79.89
2023-02-12T06:16:07.001Z,80.25
2023-02-12T06:18:37.929Z,80.75
2023-02-12T06:21:06.104Z,80.65
2023-02-12T06:23:33.876Z,80.39
2023-02-12T06:26:01.566Z,80.06
2023-02-12T06:28:29.385Z,79.79
2023-02-12T06:30:57.246Z,79.37
2023-02-12T06:33:25.021Z,79.73
2023-02-12T06:35:52.889Z,79.88
2023-02-12T06:38:20.797Z,79.42
2023-02-12T06:40:48.754Z,79.23
2023-02-12T06:43:16.550Z,78.93
2023-02-12T06:45:44.400Z,79.30
2023-02-12T06:48:12.128Z,78.91
2023-02-12T06:50:39.824Z,78.76
2023-02-12T06:53:07.584Z,79.45
2023-02-12T06:55:35.363Z,79.28
2023-02-12T06:58:03.151Z,78.93
2023-02-12T07:00:30.925Z,78.11
2023-02-12T07:02:58.856Z,78.38
2023-02-12T07:05:26.752Z,78.49
2023-02-12T07:07:54.553Z,78.67
2023-02-12T07:10:22.254Z,77.85
2023-02-12T07:12:49.946Z,78.00
2023-02-12T07:15:17.698Z,77.55
2023-02-12T07:17:45.532Z,78.49
2023-02-12T07:20:13.592Z,77.36
2023-02-12T07:22:41.430Z,77.43
2023-02-12T07:25:09.302Z,77.28
2023-02-12T07:27:38.110Z,77.97
2023-02-12T07:30:07.456Z,77.01
2023-02-12T07:32:35.596Z,77.58
2023-02-12T07:35:03.434Z,77.61
2023-02-12T07:37:31.224Z,77.10
2023-02-12T07:39:58.953Z,77.12
2023-02-12T07:42:26.709Z,77.60
2023-02-12T07:44:54.400Z,77.53
2023-02-12T07:47:22.276Z,76.19
2023-02-12T07:49:50.139Z,76.38
2023-02-12T07:52:17.976Z,76.35
2023-02-12T07:54:45.750Z,75.56
2023-02-12T07:57:13.545Z,75.07
2023-02-12T07:59:41.308Z,75.77
2023-02-12T08:02:09.844Z,75.65
2023-02-12T08:04:37.717Z,74.23
2023-02-12T08:07:05.652Z,73.74
2023-02-12T08:09:33.410Z,72.75
2023-02-12T08:12:01.150Z,73.79
2023-02-12T08:14:29.301Z,74.72
2023-02-12T08:16:57.343Z,72.69
2023-02-12T08:19:26.826Z,74.37
2023-02-12T08:21:56.977Z,72.84
2023-02-12T08:24:25.639Z,74.14
2023-02-12T08:26:53.780Z,73.27
2023-02-12T08:29:25.586Z,72.04
2023-02-12T08:31:59.143Z,70.94
2023-02-12T08:34:29.607Z,71.20
2023-02-12T08:36:58.098Z,71.61
2023-02-12T08:39:28.764Z,70.81
2023-02-12T08:41:58.623Z,70.09
2023-02-12T08:44:26.609Z,70.08
2023-02-12T08:46:55.763Z,69.84
2023-02-12T08:49:26.768Z,68.76
2023-02-12T08:51:56.683Z,63.35
2023-02-12T08:54:26.949Z,66.46
2023-02-12T08:56:56.759Z,63.59
2023-02-12T08:59:24.977Z,62.34
2023-02-12T09:01:53.745Z,65.13
2023-02-12T09:04:27.354Z,66.13
2023-02-12T09:06:55.808Z,59.88
2023-02-12T09:09:23.617Z,59.89
2023-02-12T09:11:51.556Z,56.77
2023-02-12T09:14:26.045Z,55.63
2023-02-12T09:16:55.034Z,57.68
2023-02-12T09:19:23.144Z,56.89
2023-02-12T09:21:55.569Z,55.30
2023-02-12T09:24:25.641Z,53.87
2023-02-12T09:26:53.464Z,54.11
2023-02-12T09:29:21.371Z,55.58
2023-02-12T09:31:49.218Z,50.68
2023-02-12T09:34:17.216Z,51.31
2023-02-12T09:36:45.053Z,55.87
2023-02-12T09:39:12.823Z,51.76
2023-02-12T09:41:59.019Z,50.88
2023-02-12T09:44:26.758Z,50.47
2023-02-12T09:47:17.714Z,50.98
2023-02-12T09:50:23.893Z,50.33
2023-02-12T09:52:54.723Z,46.47
2023-02-12T09:55:29.357Z,51.17
2023-02-12T09:57:57.377Z,50.26
2023-02-12T10:00:29.063Z,48.20
2023-02-12T10:03:01.732Z,47.75
2023-02-12T10:05:43.303Z,48.52
2023-02-12T10:08:14.290Z,52.50
2023-02-12T10:10:53.354Z,48.68
2023-02-12T10:13:39.333Z,47.82
2023-02-12T10:16:20.502Z,46.71
2023-02-12T10:18:59.940Z,47.38
2023-02-12T10:22:12.564Z,48.23
2023-02-12T10:24:52.192Z,47.40
2023-02-12T10:27:38.199Z,48.88
2023-02-12T10:30:49.947Z,48.12
2023-02-12T10:33:26.909Z,47.40
2023-02-12T10:36:02.297Z,47.27
2023-02-12T10:38:36.432Z,45.75
2023-02-12T10:41:04.235Z,47.09
2023-02-12T10:43:32.567Z,46.45
2023-02-12T10:46:00.291Z,45.54
2023-02-12T10:48:36.932Z,46.80
2023-02-12T10:51:07.678Z,47.55
2023-02-12T10:53:38.600Z,48.66
2023-02-12T10:56:17.442Z,47.25
2023-02-12T10:58:59.716Z,46.96
2023-02-12T11:01:28.754Z,47.50
2023-02-12T11:03:58.817Z,46.34
2023-02-12T11:06:29.875Z,46.62
2023-02-12T11:08:59.112Z,46.44
2023-02-12T11:11:31.472Z,46.20
2023-02-12T11:14:16.817Z,46.59
2023-02-12T11:16:56.803Z,47.02
2023-02-12T11:19:30.456Z,46.58
2023-02-12T11:22:11.263Z,44.71
2023-02-12T11:24:39.020Z,43.70
2023-02-12T11:27:15.617Z,44.01
2023-02-12T11:29:44.604Z,45.52
2023-02-12T11:32:18.469Z,45.86
2023-02-12T11:35:14.935Z,46.64
2023-02-12T11:37:44.760Z,46.37
2023-02-12T11:40:25.478Z,45.34
2023-02-12T11:42:59.398Z,47.01
2023-02-12T11:45:34.570Z,47.04
2023-02-12T11:48:03.041Z,47.60
2023-02-12T11:50:35.178Z,47.63
2023-02-12T11:53:09.442Z,48.74
2023-02-12T11:55:40.934Z,48.67
2023-02-12T11:58:20.831Z,48.82
2023-02-12T12:01:20.304Z,49.71
2023-02-12T12:04:09.972Z,49.80
2023-02-12T12:06:44.420Z,49.70
2023-02-12T12:09:29.128Z,49.90
2023-02-12T12:12:03.004Z,50.27
2023-02-12T12:15:01.058Z,50.18
2023-02-12T12:18:04.348Z,50.67
2023-02-12T12:20:39.231Z,51.34
2023-02-12T12:23:17.421Z,51.69
2023-02-12T12:25:56.156Z,52.29
2023-02-12T12:28:42.057Z,53.06
2023-02-12T12:31:17.305Z,52.85
2023-02-12T12:33:52.972Z,53.03
2023-02-12T12:36:51.905Z,53.21
2023-02-12T12:39:34.918Z,53.67
2023-02-12T12:42:02.699Z,53.70
2023-02-12T12:45:03.196Z,53.92
2023-02-12T12:47:30.785Z,54.18
2023-02-12T12:50:21.993Z,54.83
2023-02-12T12:53:10.035Z,55.21
2023-02-12T12:56:15.153Z,55.36
2023-02-12T12:58:54.476Z,56.01
2023-02-12T13:01:36.364Z,56.35
2023-02-12T13:04:30.759Z,57.04
2023-02-12T13:07:32.603Z,57.56
2023-02-12T13:10:24.413Z,57.90
2023-02-12T13:13:01.366Z,58.58
2023-02-12T13:15:50.904Z,59.15
2023-02-12T13:18:36.746Z,59.06
2023-02-12T13:21:25.645Z,59.71
2023-02-12T13:24:02.558Z,59.95
2023-02-12T13:26:41.458Z,60.47
2023-02-12T13:29:19.107Z,60.21
2023-02-12T13:32:05.455Z,60.71
2023-02-12T13:34:36.715Z,61.11
2023-02-12T13:37:10.123Z,60.90
2023-02-12T13:39:41.601Z,61.66
2023-02-12T13:42:27.456Z,62.26
2023-02-12T13:45:07.715Z,62.06
2023-02-12T13:47:56.853Z,62.61
2023-02-12T13:50:43.264Z,62.62
2023-02-12T13:53:23.695Z,62.69
2023-02-12T13:55:54.618Z,62.92
2023-02-12T13:58:37.830Z,63.10
2023-02-12T14:01:12.563Z,63.76
2023-02-12T14:03:40.893Z,63.55
2023-02-12T14:06:18.113Z,63.77
2023-02-12T14:09:07.723Z,64.03
2023-02-12T14:11:48.571Z,64.05
2023-02-12T14:14:27.871Z,64.63
2023-02-12T14:16:55.634Z,64.86
2023-02-12T14:19:38.608Z,64.93
2023-02-12T14:22:32.844Z,64.87
2023-02-12T14:25:25.466Z,65.17
2023-02-12T14:27:55.432Z,65.36
2023-02-12T14:30:38.332Z,65.76
2023-02-12T14:33:06.736Z,65.87
2023-02-12T14:35:49.591Z,65.51
2023-02-12T14:38:19.805Z,65.46
2023-02-12T14:40:49.378Z,66.55
2023-02-12T14:43:56.973Z,66.06
2023-02-12T14:46:24.789Z,67.19
2023-02-12T14:49:05.913Z,66.63
2023-02-12T14:51:55.606Z,66.61
2023-02-12T14:54:37.086Z,66.98
2023-02-12T14:57:11.680Z,67.02
2023-02-12T14:59:43.580Z,67.10
2023-02-12T15:02:34.540Z,67.49
2023-02-12T15:05:06.857Z,67.54
2023-02-12T15:07:44.605Z,67.60
2023-02-12T15:10:20.262Z,67.33
2023-02-12T15:13:07.748Z,68.07
2023-02-12T15:15:49.306Z,68.09
2023-02-12T15:18:43.113Z,68.32
2023-02-12T15:21:23.037Z,68.85
2023-02-12T15:24:20.442Z,69.22
2023-02-12T15:26:51.690Z,69.54
2023-02-12T15:29:27.469Z,68.74
2023-02-12T15:31:59.032Z,69.64
2023-02-12T15:34:30.362Z,69.97
2023-02-12T15:37:01.828Z,69.99
2023-02-12T15:39:41.786Z,70.49
2023-02-12T15:42:37.908Z,70.46
2023-02-12T15:45:14.950Z,70.84
2023-02-12T15:47:44.919Z,70.69
2023-02-12T15:50:15.241Z,70.48
2023-02-12T15:52:46.416Z,71.05
2023-02-12T15:55:21.815Z,71.90
2023-02-12T15:57:58.477Z,73.29
2023-02-12T16:00:53.480Z,72.31
2023-02-12T16:03:36.297Z,72.28
2023-02-12T16:06:13.786Z,72.58
2023-02-12T16:08:45.604Z,73.06
2023-02-12T16:11:17.246Z,72.74
2023-02-12T16:13:59.427Z,72.36
2023-02-12T16:16:29.241Z,73.76
2023-02-12T16:19:20.388Z,74.04
2023-02-12T16:21:51.723Z,73.91
2023-02-12T16:24:49.557Z,74.02
2023-02-12T16:27:34.531Z,73.40
2023-02-12T16:30:06.184Z,73.90
2023-02-12T16:32:37.959Z,74.24
2023-02-12T16:35:12.097Z,75.17
2023-02-12T16:37:39.878Z,75.39
2023-02-12T16:40:23.116Z,74.85
2023-02-12T16:42:50.862Z,75.16
2023-02-12T16:45:27.703Z,76.25
2023-02-12T16:48:08.637Z,75.79
2023-02-12T16:50:43.471Z,76.96
2023-02-12T16:53:29.958Z,76.37
2023-02-12T16:55:59.054Z,75.69
2023-02-12T16:58:28.526Z,76.11
2023-02-12T17:00:59.352Z,76.44
2023-02-12T17:03:27.515Z,76.40
2023-02-12T17:05:55.857Z,76.88
2023-02-12T17:08:24.408Z,76.97
2023-02-12T17:10:52.419Z,77.09
2023-02-12T17:13:21.046Z,77.25
2023-02-12T17:15:58.309Z,76.69
2023-02-12T17:18:26.472Z,77.51
2023-02-12T17:20:57.789Z,77.02
2023-02-12T17:23:26.309Z,76.69
2023-02-12T17:25:54.820Z,76.43
2023-02-12T17:28:25.032Z,77.01
2023-02-12T17:30:54.069Z,77.25
2023-02-12T17:33:22.763Z,77.99
2023-02-12T17:35:50.558Z,77.85
2023-02-12T17:38:18.500Z,77.54
2023-02-12T17:40:46.316Z,77.38
2023-02-12T17:43:14.037Z,77.00
2023-02-12T17:45:43.372Z,78.41
2023-02-12T17:48:12.605Z,78.25
2023-02-12T17:50:40.905Z,77.86
2023-02-12T17:53:09.789Z,78.42
2023-02-12T17:55:41.333Z,78.65
2023-02-12T17:58:09.072Z,79.00
2023-02-12T18:00:36.874Z,79.42
2023-02-12T18:03:04.619Z,78.44
2023-02-12T18:05:32.506Z,78.92
2023-02-12T18:08:02.254Z,78.41
2023-02-12T18:10:30.088Z,79.02
2023-02-12T18:12:57.811Z,79.19
2023-02-12T18:15:25.516Z,78.66
2023-02-12T18:17:53.327Z,78.52
2023-02-12T18:20:21.238Z,78.63
2023-02-12T18:22:50.219Z,78.91
2023-02-12T18:25:18.964Z,78.78
2023-02-12T18:27:46.825Z,78.39
2023-02-12T18:30:15.120Z,77.90
2023-02-12T18:32:43.692Z,78.40
2023-02-12T18:35:11.657Z,77.18
2023-02-12T18:37:43.258Z,77.66
2023-02-12T18:40:12.148Z,77.42
2023-02-12T18:42:40.068Z,77.72
2023-02-12T18:45:08.369Z,77.62
2023-02-12T18:47:36.443Z,77.28
2023-02-12T18:50:04.563Z,77.47
2023-02-12T18:52:32.829Z,78.04
2023-02-12T18:55:00.749Z,78.23
2023-02-12T18:57:29.862Z,78.46
2023-02-12T18:59:57.707Z,78.70
2023-02-12T19:02:25.680Z,79.28
2023-02-12T19:04:53.798Z,78.83
2023-02-12T19:07:21.645Z,78.89
2023-02-12T19:09:49.754Z,79.06
2023-02-12T19:12:17.518Z,79.13
2023-02-12T19:14:45.734Z,78.96
2023-02-12T19:17:13.598Z,78.96
2023-02-12T19:19:41.478Z,79.31
2023-02-12T19:22:09.208Z,79.65
2023-02-12T19:24:46.166Z,79.87
2023-02-12T19:27:14.647Z,79.14
2023-02-12T19:29:42.380Z,79.20
2023-02-12T19:32:10.350Z,79.33
2023-02-12T19:34:38.365Z,79.78
2023-02-12T19:37:08.986Z,79.38
2023-02-12T19:39:38.019Z,79.23
2023-02-12T19:42:05.780Z,79.13
2023-02-12T19:44:33.565Z,79.85
2023-02-12T19:47:01.379Z,79.76
2023-02-12T19:49:29.242Z,79.80
2023-02-12T19:51:57.099Z,80.20
2023-02-12T19:54:25.270Z,80.44
2023-02-12T19:56:55.212Z,80.60
2023-02-12T19:59:25.395Z,80.93
2023-02-12T20:01:54.040Z,80.77
2023-02-12T20:04:23.802Z,80.88
2023-02-12T20:06:52.386Z,81.27
2023-02-12T20:09:22.084Z,81.10
2023-02-12T20:11:50.761Z,81.24
2023-02-12T20:14:20.811Z,81.46
2023-02-12T20:16:50.407Z,81.35
2023-02-12T20:19:22.965Z,80.97
2023-02-12T20:21:55.331Z,81.59
2023-02-12T20:24:30.972Z,81.29
2023-02-12T20:27:00.972Z,81.05
2023-02-12T20:29:28.956Z,82.42
2023-02-12T20:31:57.256Z,81.67
2023-02-12T20:34:25.203Z,81.78
2023-02-12T20:36:53.952Z,81.89
2023-02-12T20:39:21.998Z,82.26
2023-02-12T20:41:50.129Z,82.21
2023-02-12T20:44:20.577Z,82.25
2023-02-12T20:46:52.504Z,82.46
2023-02-12T20:49:24.497Z,82.78
2023-02-12T20:51:52.749Z,82.75
2023-02-12T20:54:21.170Z,82.44
2023-02-12T20:56:50.359Z,82.86
2023-02-12T20:59:18.972Z,82.80
2023-02-12T21:01:47.498Z,83.01
2023-02-12T21:04:17.796Z,83.19
2023-02-12T21:06:45.954Z,83.01
2023-02-12T21:09:14.909Z,83.45
2023-02-12T21:11:45.683Z,83.57
2023-02-12T21:14:24.007Z,83.73
2023-02-12T21:16:54.681Z,83.96
2023-02-12T21:19:22.531Z,83.90
2023-02-12T21:21:50.266Z,83.91
2023-02-12T21:24:21.577Z,84.12
2023-02-12T21:26:50.826Z,84.19
2023-02-12T21:29:19.474Z,84.73
2023-02-12T21:31:49.643Z,85.02
2023-02-12T21:34:21.177Z,85.10
2023-02-12T21:36:50.401Z,85.36
2023-02-12T21:39:24.882Z,85.44
2023-02-12T21:41:55.525Z,85.36
2023-02-12T21:44:24.744Z,85.25
2023-02-12T21:46:53.102Z,85.05
2023-02-12T21:49:28.268Z,85.62
2023-02-12T21:52:04.426Z,85.83
2023-02-12T21:54:32.426Z,86.32
2023-02-12T21:57:00.739Z,86.27
2023-02-12T21:59:31.758Z,86.33
2023-02-12T22:02:00.768Z,86.46
2023-02-12T22:04:29.240Z,86.90
2023-02-12T22:06:58.230Z,86.96
2023-02-12T22:09:26.165Z,86.65
2023-02-12T22:11:54.148Z,86.36
2023-02-12T22:14:22.602Z,86.69
2023-02-12T22:16:50.810Z,86.83
2023-02-12T22:19:18.708Z,87.49
2023-02-12T22:21:51.271Z,87.83
2023-02-12T22:24:20.015Z,87.68
2023-02-12T22:26:47.913Z,87.96
2023-02-12T22:29:16.274Z,88.26
2023-02-12T22:31:46.055Z,88.86
2023-02-12T22:34:17.073Z,88.89
2023-02-12T22:36:46.925Z,88.64
2023-02-12T22:39:15.380Z,89.94
2023-02-12T22:41:43.266Z,89.75
2023-02-12T22:44:12.982Z,89.61
2023-02-12T22:46:44.110Z,89.11
2023-02-12T22:49:12.000Z,88.97
2023-02-12T22:51:40.460Z,88.80
2023-02-12T22:54:13.921Z,89.00
2023-02-12T22:56:42.090Z,89.69
2023-02-12T22:59:11.114Z,89.16
2023-02-12T23:01:40.011Z,88.98
2023-02-12T23:04:12.454Z,89.44
2023-02-12T23:06:40.296Z,89.37
2023-02-12T23:09:12.622Z,89.00
2023-02-12T23:11:40.544Z,89.28
2023-02-12T23:14:08.367Z,89.74
2023-02-12T23:16:36.170Z,89.31
2023-02-12T23:19:03.954Z,89.51
2023-02-12T23:21:32.565Z,89.62
2023-02-12T23:24:00.458Z,89.60
2023-02-12T23:26:29.600Z,90.18
2023-02-12T23:28:57.658Z,90.07
2023-02-12T23:31:25.976Z,89.81
2023-02-12T23:33:54.066Z,89.59
2023-02-12T23:36:21.949Z,89.91
2023-02-12T23:38:49.696Z,89.79
2023-02-12T23:41:17.754Z,89.64
2023-02-12T23:43:45.654Z,89.94
2023-02-12T23:46:13.438Z,89.98
2023-02-12T23:48:41.322Z,90.09
2023-02-12T23:51:09.272Z,90.11
2023-02-12T23:53:37.110Z,89.83
2023-02-12T23:56:04.996Z,90.14
2023-02-12T23:58:32.711Z,90.00
